sensor_id;sensor_type;location;lat;lon;timestamp;P1;durP1;ratioP1;P2;durP2;ratioP2
16839;SDS011;8536;52.150;11.572;2022-09-02T00:01:31;0.85;;;0.75;;
16839;SDS011;8536;52.150;11.572;2022-09-02T00:03:59;1.52;;;0.90;;
16839;SDS011;8536;52.150;11.572;2022-09-02T00:06:27;2.20;;;0.77;;
16839;SDS011;8536;52.150;11.572;2022-09-02T00:08:55;3.55;;;1.00;;
16839;SDS011;8536;52.150;11.572;2022-09-02T00:11:23;3.45;;;0.70;;
16839;SDS011;8536;52.150;11.572;2022-09-02T00:13:56;1.15;;;0.77;;
16839;SDS011;8536;52.150;11.572;2022-09-02T00:16:23;0.70;;;0.52;;
16839;SDS011;8536;52.150;11.572;2022-09-02T00:18:50;1.33;;;0.77;;
16839;SDS011;8536;52.150;11.572;2022-09-02T00:21:19;1.33;;;0.90;;
16839;SDS011;8536;52.150;11.572;2022-09-02T00:23:45;2.00;;;0.80;;
16839;SDS011;8536;52.150;11.572;2022-09-02T00:26:12;1.27;;;0.80;;
16839;SDS011;8536;52.150;11.572;2022-09-02T00:28:40;0.70;;;0.70;;
16839;SDS011;8536;52.150;11.572;2022-09-02T00:31:14;1.58;;;0.90;;
16839;SDS011;8536;52.150;11.572;2022-09-02T00:33:41;0.60;;;0.60;;
16839;SDS011;8536;52.150;11.572;2022-09-02T00:36:07;0.90;;;0.60;;
16839;SDS011;8536;52.150;11.572;2022-09-02T00:38:34;0.70;;;0.70;;
16839;SDS011;8536;52.150;11.572;2022-09-02T00:41:03;1.50;;;0.70;;
16839;SDS011;8536;52.150;11.572;2022-09-02T00:46:04;0.70;;;0.55;;
16839;SDS011;8536;52.150;11.572;2022-09-02T00:48:31;1.00;;;0.80;;
16839;SDS011;8536;52.150;11.572;2022-09-02T00:50:58;0.88;;;0.80;;
16839;SDS011;8536;52.150;11.572;2022-09-02T00:53:26;1.27;;;0.65;;
16839;SDS011;8536;52.150;11.572;2022-09-02T00:55:52;0.80;;;0.80;;
16839;SDS011;8536;52.150;11.572;2022-09-02T00:58:20;1.33;;;1.08;;
16839;SDS011;8536;52.150;11.572;2022-09-02T01:00:48;0.90;;;0.80;;
16839;SDS011;8536;52.150;11.572;2022-09-02T01:03:21;1.35;;;0.80;;
16839;SDS011;8536;52.150;11.572;2022-09-02T01:05:52;0.60;;;0.50;;
16839;SDS011;8536;52.150;11.572;2022-09-02T01:08:21;2.65;;;0.77;;
16839;SDS011;8536;52.150;11.572;2022-09-02T01:10:51;1.55;;;0.90;;
16839;SDS011;8536;52.150;11.572;2022-09-02T01:13:22;2.63;;;0.70;;
16839;SDS011;8536;52.150;11.572;2022-09-02T01:16:14;2.25;;;0.73;;
16839;SDS011;8536;52.150;11.572;2022-09-02T01:18:46;1.55;;;0.73;;
16839;SDS011;8536;52.150;11.572;2022-09-02T01:21:14;0.93;;;0.80;;
16839;SDS011;8536;52.150;11.572;2022-09-02T01:23:43;1.00;;;0.75;;
16839;SDS011;8536;52.150;11.572;2022-09-02T01:26:10;0.93;;;0.70;;
16839;SDS011;8536;52.150;11.572;2022-09-02T01:28:37;1.00;;;0.80;;
16839;SDS011;8536;52.150;11.572;2022-09-02T01:31:03;1.10;;;0.80;;
16839;SDS011;8536;52.150;11.572;2022-09-02T01:33:30;1.98;;;0.90;;
16839;SDS011;8536;52.150;11.572;2022-09-02T01:35:57;0.80;;;0.80;;
16839;SDS011;8536;52.150;11.572;2022-09-02T01:38:24;1.10;;;0.90;;
16839;SDS011;8536;52.150;11.572;2022-09-02T01:40:51;0.88;;;0.82;;
16839;SDS011;8536;52.150;11.572;2022-09-02T01:43:19;1.00;;;0.80;;
16839;SDS011;8536;52.150;11.572;2022-09-02T01:45:48;1.40;;;0.90;;
16839;SDS011;8536;52.150;11.572;2022-09-02T01:48:16;2.40;;;0.77;;
16839;SDS011;8536;52.150;11.572;2022-09-02T01:50:55;1.40;;;0.80;;
16839;SDS011;8536;52.150;11.572;2022-09-02T01:53:24;0.70;;;0.70;;
16839;SDS011;8536;52.150;11.572;2022-09-02T01:55:50;1.35;;;0.90;;
16839;SDS011;8536;52.150;11.572;2022-09-02T01:58:17;1.67;;;0.60;;
16839;SDS011;8536;52.150;11.572;2022-09-02T02:00:44;1.33;;;0.95;;
16839;SDS011;8536;52.150;11.572;2022-09-02T02:03:11;1.27;;;0.82;;
16839;SDS011;8536;52.150;11.572;2022-09-02T02:05:38;0.85;;;0.80;;
16839;SDS011;8536;52.150;11.572;2022-09-02T02:08:04;1.45;;;0.95;;
16839;SDS011;8536;52.150;11.572;2022-09-02T02:10:31;2.70;;;1.10;;
16839;SDS011;8536;52.150;11.572;2022-09-02T02:12:59;2.35;;;1.00;;
16839;SDS011;8536;52.150;11.572;2022-09-02T02:15:26;0.60;;;0.60;;
16839;SDS011;8536;52.150;11.572;2022-09-02T02:17:51;0.95;;;0.80;;
16839;SDS011;8536;52.150;11.572;2022-09-02T02:20:19;2.30;;;0.98;;
16839;SDS011;8536;52.150;11.572;2022-09-02T02:22:46;1.15;;;0.60;;
16839;SDS011;8536;52.150;11.572;2022-09-02T02:25:13;1.25;;;1.02;;
16839;SDS011;8536;52.150;11.572;2022-09-02T02:27:40;1.23;;;0.93;;
16839;SDS011;8536;52.150;11.572;2022-09-02T02:30:09;0.77;;;0.70;;
16839;SDS011;8536;52.150;11.572;2022-09-02T02:32:37;1.20;;;0.90;;
16839;SDS011;8536;52.150;11.572;2022-09-02T02:35:03;2.08;;;0.98;;
16839;SDS011;8536;52.150;11.572;2022-09-02T02:37:30;1.25;;;0.93;;
16839;SDS011;8536;52.150;11.572;2022-09-02T02:39:57;1.77;;;0.90;;
16839;SDS011;8536;52.150;11.572;2022-09-02T02:42:24;1.98;;;1.00;;
16839;SDS011;8536;52.150;11.572;2022-09-02T02:44:50;1.25;;;0.90;;
16839;SDS011;8536;52.150;11.572;2022-09-02T02:47:17;1.58;;;1.05;;
16839;SDS011;8536;52.150;11.572;2022-09-02T02:49:43;1.15;;;0.90;;
16839;SDS011;8536;52.150;11.572;2022-09-02T02:52:10;1.48;;;0.85;;
16839;SDS011;8536;52.150;11.572;2022-09-02T02:54:37;1.52;;;0.88;;
16839;SDS011;8536;52.150;11.572;2022-09-02T02:57:04;0.70;;;0.70;;
16839;SDS011;8536;52.150;11.572;2022-09-02T02:59:32;1.10;;;1.00;;
16839;SDS011;8536;52.150;11.572;2022-09-02T03:01:58;1.17;;;1.08;;
16839;SDS011;8536;52.150;11.572;2022-09-02T03:04:25;1.60;;;0.90;;
16839;SDS011;8536;52.150;11.572;2022-09-02T03:06:52;0.90;;;0.73;;
16839;SDS011;8536;52.150;11.572;2022-09-02T03:09:18;3.22;;;0.95;;
16839;SDS011;8536;52.150;11.572;2022-09-02T03:11:46;1.20;;;1.00;;
16839;SDS011;8536;52.150;11.572;2022-09-02T03:14:12;1.65;;;1.17;;
16839;SDS011;8536;52.150;11.572;2022-09-02T03:16:39;1.60;;;1.33;;
16839;SDS011;8536;52.150;11.572;2022-09-02T03:19:06;1.63;;;1.15;;
16839;SDS011;8536;52.150;11.572;2022-09-02T03:21:32;1.98;;;1.10;;
16839;SDS011;8536;52.150;11.572;2022-09-02T03:24:04;1.30;;;1.20;;
16839;SDS011;8536;52.150;11.572;2022-09-02T03:26:31;1.00;;;0.90;;
16839;SDS011;8536;52.150;11.572;2022-09-02T03:28:57;1.10;;;1.00;;
16839;SDS011;8536;52.150;11.572;2022-09-02T03:31:25;1.05;;;0.95;;
16839;SDS011;8536;52.150;11.572;2022-09-02T03:33:52;1.63;;;1.05;;
16839;SDS011;8536;52.150;11.572;2022-09-02T03:36:25;1.20;;;1.00;;
16839;SDS011;8536;52.150;11.572;2022-09-02T03:38:54;1.83;;;1.20;;
16839;SDS011;8536;52.150;11.572;2022-09-02T03:41:21;1.20;;;1.10;;
16839;SDS011;8536;52.150;11.572;2022-09-02T03:43:47;0.93;;;0.93;;
16839;SDS011;8536;52.150;11.572;2022-09-02T03:46:14;1.23;;;1.10;;
16839;SDS011;8536;52.150;11.572;2022-09-02T03:48:41;0.85;;;0.85;;
16839;SDS011;8536;52.150;11.572;2022-09-02T03:51:07;1.25;;;0.85;;
16839;SDS011;8536;52.150;11.572;2022-09-02T03:53:34;1.88;;;0.90;;
16839;SDS011;8536;52.150;11.572;2022-09-02T03:56:07;1.48;;;1.17;;
16839;SDS011;8536;52.150;11.572;2022-09-02T03:58:38;1.85;;;1.25;;
16839;SDS011;8536;52.150;11.572;2022-09-02T04:01:06;1.75;;;1.08;;
16839;SDS011;8536;52.150;11.572;2022-09-02T04:03:33;1.50;;;1.25;;
16839;SDS011;8536;52.150;11.572;2022-09-02T04:05:59;2.08;;;1.30;;
16839;SDS011;8536;52.150;11.572;2022-09-02T04:08:26;1.15;;;1.00;;
16839;SDS011;8536;52.150;11.572;2022-09-02T04:10:52;1.90;;;1.20;;
16839;SDS011;8536;52.150;11.572;2022-09-02T04:13:20;2.33;;;1.23;;
16839;SDS011;8536;52.150;11.572;2022-09-02T04:15:47;1.73;;;1.02;;
16839;SDS011;8536;52.150;11.572;2022-09-02T04:18:15;2.05;;;1.20;;
16839;SDS011;8536;52.150;11.572;2022-09-02T04:20:42;1.65;;;0.90;;
16839;SDS011;8536;52.150;11.572;2022-09-02T04:23:09;1.30;;;1.20;;
16839;SDS011;8536;52.150;11.572;2022-09-02T04:25:42;2.47;;;1.35;;
16839;SDS011;8536;52.150;11.572;2022-09-02T04:28:09;1.75;;;1.30;;
16839;SDS011;8536;52.150;11.572;2022-09-02T04:30:40;3.30;;;1.30;;
16839;SDS011;8536;52.150;11.572;2022-09-02T04:33:06;1.70;;;1.60;;
16839;SDS011;8536;52.150;11.572;2022-09-02T04:35:33;1.75;;;1.40;;
16839;SDS011;8536;52.150;11.572;2022-09-02T04:38:01;1.60;;;1.25;;
16839;SDS011;8536;52.150;11.572;2022-09-02T04:40:28;1.88;;;1.42;;
16839;SDS011;8536;52.150;11.572;2022-09-02T04:42:54;1.95;;;1.60;;
16839;SDS011;8536;52.150;11.572;2022-09-02T04:45:21;1.48;;;1.33;;
16839;SDS011;8536;52.150;11.572;2022-09-02T04:47:52;1.83;;;1.30;;
16839;SDS011;8536;52.150;11.572;2022-09-02T04:50:19;2.13;;;1.25;;
16839;SDS011;8536;52.150;11.572;2022-09-02T04:52:45;2.17;;;1.30;;
16839;SDS011;8536;52.150;11.572;2022-09-02T04:55:12;3.60;;;1.70;;
16839;SDS011;8536;52.150;11.572;2022-09-02T04:57:38;1.80;;;1.65;;
16839;SDS011;8536;52.150;11.572;2022-09-02T05:00:06;2.70;;;1.35;;
16839;SDS011;8536;52.150;11.572;2022-09-02T05:02:34;1.60;;;1.50;;
16839;SDS011;8536;52.150;11.572;2022-09-02T05:05:00;1.90;;;1.73;;
16839;SDS011;8536;52.150;11.572;2022-09-02T05:07:27;2.45;;;1.50;;
16839;SDS011;8536;52.150;11.572;2022-09-02T05:09:59;3.20;;;1.60;;
16839;SDS011;8536;52.150;11.572;2022-09-02T05:12:25;1.85;;;1.67;;
16839;SDS011;8536;52.150;11.572;2022-09-02T05:14:53;3.10;;;1.95;;
16839;SDS011;8536;52.150;11.572;2022-09-02T05:17:21;4.15;;;1.88;;
16839;SDS011;8536;52.150;11.572;2022-09-02T05:19:48;2.47;;;1.85;;
16839;SDS011;8536;52.150;11.572;2022-09-02T05:22:14;3.20;;;2.10;;
16839;SDS011;8536;52.150;11.572;2022-09-02T05:24:41;3.08;;;1.98;;
16839;SDS011;8536;52.150;11.572;2022-09-02T05:27:08;2.08;;;1.88;;
16839;SDS011;8536;52.150;11.572;2022-09-02T05:29:35;2.58;;;2.00;;
16839;SDS011;8536;52.150;11.572;2022-09-02T05:32:02;2.28;;;2.08;;
16839;SDS011;8536;52.150;11.572;2022-09-02T05:34:29;2.35;;;2.15;;
16839;SDS011;8536;52.150;11.572;2022-09-02T05:36:58;2.53;;;2.10;;
16839;SDS011;8536;52.150;11.572;2022-09-02T05:39:24;2.00;;;1.83;;
16839;SDS011;8536;52.150;11.572;2022-09-02T05:41:51;3.90;;;2.15;;
16839;SDS011;8536;52.150;11.572;2022-09-02T05:44:17;2.47;;;1.90;;
16839;SDS011;8536;52.150;11.572;2022-09-02T05:46:44;2.90;;;2.25;;
16839;SDS011;8536;52.150;11.572;2022-09-02T05:49:14;6.32;;;2.20;;
16839;SDS011;8536;52.150;11.572;2022-09-02T05:51:49;2.78;;;2.50;;
16839;SDS011;8536;52.150;11.572;2022-09-02T05:54:25;4.20;;;1.77;;
16839;SDS011;8536;52.150;11.572;2022-09-02T05:56:57;7.40;;;2.50;;
16839;SDS011;8536;52.150;11.572;2022-09-02T05:59:29;4.15;;;2.38;;
16839;SDS011;8536;52.150;11.572;2022-09-02T06:01:57;5.97;;;2.17;;
16839;SDS011;8536;52.150;11.572;2022-09-02T06:04:24;4.15;;;2.30;;
16839;SDS011;8536;52.150;11.572;2022-09-02T06:06:51;2.42;;;2.22;;
16839;SDS011;8536;52.150;11.572;2022-09-02T06:09:19;2.60;;;2.28;;
16839;SDS011;8536;52.150;11.572;2022-09-02T06:11:46;5.88;;;2.70;;
16839;SDS011;8536;52.150;11.572;2022-09-02T06:14:18;4.80;;;2.53;;
16839;SDS011;8536;52.150;11.572;2022-09-02T06:16:48;7.07;;;2.90;;
16839;SDS011;8536;52.150;11.572;2022-09-02T06:19:15;5.47;;;2.50;;
16839;SDS011;8536;52.150;11.572;2022-09-02T06:21:47;5.18;;;2.45;;
16839;SDS011;8536;52.150;11.572;2022-09-02T06:24:14;3.38;;;2.60;;
16839;SDS011;8536;52.150;11.572;2022-09-02T06:26:40;3.88;;;2.55;;
16839;SDS011;8536;52.150;11.572;2022-09-02T06:29:07;5.68;;;2.50;;
16839;SDS011;8536;52.150;11.572;2022-09-02T06:31:34;4.90;;;2.50;;
16839;SDS011;8536;52.150;11.572;2022-09-02T06:34:00;4.43;;;2.60;;
16839;SDS011;8536;52.150;11.572;2022-09-02T06:36:29;5.20;;;2.38;;
16839;SDS011;8536;52.150;11.572;2022-09-02T06:38:56;4.28;;;2.58;;
16839;SDS011;8536;52.150;11.572;2022-09-02T06:41:24;3.50;;;2.45;;
16839;SDS011;8536;52.150;11.572;2022-09-02T06:43:57;3.63;;;2.00;;
16839;SDS011;8536;52.150;11.572;2022-09-02T06:46:26;3.67;;;2.25;;
16839;SDS011;8536;52.150;11.572;2022-09-02T06:48:54;5.63;;;2.00;;
16839;SDS011;8536;52.150;11.572;2022-09-02T06:51:22;2.55;;;1.90;;
16839;SDS011;8536;52.150;11.572;2022-09-02T06:53:50;2.15;;;1.75;;
16839;SDS011;8536;52.150;11.572;2022-09-02T06:56:17;2.00;;;1.38;;
16839;SDS011;8536;52.150;11.572;2022-09-02T06:58:43;4.65;;;1.90;;
16839;SDS011;8536;52.150;11.572;2022-09-02T07:01:16;2.67;;;1.48;;
16839;SDS011;8536;52.150;11.572;2022-09-02T07:03:50;3.25;;;1.60;;
16839;SDS011;8536;52.150;11.572;2022-09-02T07:06:35;2.90;;;1.45;;
16839;SDS011;8536;52.150;11.572;2022-09-02T07:09:04;2.30;;;1.67;;
16839;SDS011;8536;52.150;11.572;2022-09-02T07:11:31;1.52;;;1.30;;
16839;SDS011;8536;52.150;11.572;2022-09-02T07:13:58;2.25;;;1.40;;
16839;SDS011;8536;52.150;11.572;2022-09-02T07:16:27;2.05;;;1.50;;
16839;SDS011;8536;52.150;11.572;2022-09-02T07:18:55;2.15;;;1.40;;
16839;SDS011;8536;52.150;11.572;2022-09-02T07:21:22;1.40;;;1.27;;
16839;SDS011;8536;52.150;11.572;2022-09-02T07:23:49;2.63;;;1.70;;
16839;SDS011;8536;52.150;11.572;2022-09-02T07:26:15;1.73;;;1.13;;
16839;SDS011;8536;52.150;11.572;2022-09-02T07:28:42;2.22;;;1.27;;
16839;SDS011;8536;52.150;11.572;2022-09-02T07:31:09;1.80;;;1.52;;
16839;SDS011;8536;52.150;11.572;2022-09-02T07:33:36;2.22;;;1.50;;
16839;SDS011;8536;52.150;11.572;2022-09-02T07:36:03;3.25;;;1.38;;
16839;SDS011;8536;52.150;11.572;2022-09-02T07:38:37;3.03;;;1.30;;
16839;SDS011;8536;52.150;11.572;2022-09-02T07:41:06;2.08;;;1.30;;
16839;SDS011;8536;52.150;11.572;2022-09-02T07:43:34;1.65;;;1.23;;
16839;SDS011;8536;52.150;11.572;2022-09-02T07:46:01;2.88;;;1.30;;
16839;SDS011;8536;52.150;11.572;2022-09-02T07:48:28;3.05;;;1.63;;
16839;SDS011;8536;52.150;11.572;2022-09-02T07:50:55;2.17;;;1.05;;
16839;SDS011;8536;52.150;11.572;2022-09-02T07:53:23;1.33;;;1.20;;
16839;SDS011;8536;52.150;11.572;2022-09-02T07:55:50;2.15;;;1.27;;
16839;SDS011;8536;52.150;11.572;2022-09-02T07:58:16;1.88;;;1.20;;
16839;SDS011;8536;52.150;11.572;2022-09-02T08:00:45;1.55;;;1.30;;
16839;SDS011;8536;52.150;11.572;2022-09-02T08:03:12;2.55;;;1.05;;
16839;SDS011;8536;52.150;11.572;2022-09-02T08:05:40;1.88;;;1.23;;
16839;SDS011;8536;52.150;11.572;2022-09-02T08:08:10;3.70;;;1.30;;
16839;SDS011;8536;52.150;11.572;2022-09-02T08:10:36;2.67;;;1.20;;
16839;SDS011;8536;52.150;11.572;2022-09-02T08:13:03;2.95;;;1.05;;
16839;SDS011;8536;52.150;11.572;2022-09-02T08:15:32;2.80;;;1.20;;
16839;SDS011;8536;52.150;11.572;2022-09-02T08:18:00;1.52;;;1.10;;
16839;SDS011;8536;52.150;11.572;2022-09-02T08:20:26;3.53;;;1.20;;
16839;SDS011;8536;52.150;11.572;2022-09-02T08:22:56;3.75;;;1.08;;
16839;SDS011;8536;52.150;11.572;2022-09-02T08:25:37;1.52;;;1.10;;
16839;SDS011;8536;52.150;11.572;2022-09-02T08:28:03;1.42;;;1.00;;
16839;SDS011;8536;52.150;11.572;2022-09-02T08:30:30;2.17;;;1.20;;
16839;SDS011;8536;52.150;11.572;2022-09-02T08:32:56;1.85;;;0.88;;
16839;SDS011;8536;52.150;11.572;2022-09-02T08:35:23;1.38;;;0.90;;
16839;SDS011;8536;52.150;11.572;2022-09-02T08:37:49;1.83;;;0.95;;
16839;SDS011;8536;52.150;11.572;2022-09-02T08:40:17;0.80;;;0.80;;
16839;SDS011;8536;52.150;11.572;2022-09-02T08:42:50;1.98;;;1.00;;
16839;SDS011;8536;52.150;11.572;2022-09-02T08:45:26;1.98;;;1.10;;
16839;SDS011;8536;52.150;11.572;2022-09-02T08:51:06;2.80;;;0.85;;
16839;SDS011;8536;52.150;11.572;2022-09-02T08:53:56;2.60;;;0.95;;
16839;SDS011;8536;52.150;11.572;2022-09-02T08:56:30;1.45;;;0.82;;
16839;SDS011;8536;52.150;11.572;2022-09-02T08:58:57;2.35;;;0.88;;
16839;SDS011;8536;52.150;11.572;2022-09-02T09:04:17;1.35;;;0.80;;
16839;SDS011;8536;52.150;11.572;2022-09-02T09:07:10;1.17;;;0.95;;
16839;SDS011;8536;52.150;11.572;2022-09-02T09:10:35;1.23;;;0.80;;
16839;SDS011;8536;52.150;11.572;2022-09-02T09:16:06;0.98;;;0.70;;
16839;SDS011;8536;52.150;11.572;2022-09-02T09:18:45;1.42;;;0.70;;
16839;SDS011;8536;52.150;11.572;2022-09-02T09:21:15;0.63;;;0.50;;
16839;SDS011;8536;52.150;11.572;2022-09-02T09:23:43;0.70;;;0.50;;
16839;SDS011;8536;52.150;11.572;2022-09-02T09:26:15;2.42;;;0.60;;
16839;SDS011;8536;52.150;11.572;2022-09-02T09:28:43;0.93;;;0.70;;
16839;SDS011;8536;52.150;11.572;2022-09-02T09:31:18;2.42;;;0.70;;
16839;SDS011;8536;52.150;11.572;2022-09-02T09:33:59;1.98;;;1.00;;
16839;SDS011;8536;52.150;11.572;2022-09-02T09:36:42;0.90;;;0.70;;
16839;SDS011;8536;52.150;11.572;2022-09-02T09:41:43;0.77;;;0.57;;
16839;SDS011;8536;52.150;11.572;2022-09-02T09:44:33;1.50;;;0.63;;
16839;SDS011;8536;52.150;11.572;2022-09-02T09:47:05;0.68;;;0.60;;
16839;SDS011;8536;52.150;11.572;2022-09-02T09:49:42;0.77;;;0.43;;
16839;SDS011;8536;52.150;11.572;2022-09-02T09:52:08;1.17;;;0.55;;
16839;SDS011;8536;52.150;11.572;2022-09-02T09:54:35;0.90;;;0.40;;
16839;SDS011;8536;52.150;11.572;2022-09-02T09:57:20;1.30;;;0.50;;
16839;SDS011;8536;52.150;11.572;2022-09-02T09:59:47;1.65;;;0.63;;
16839;SDS011;8536;52.150;11.572;2022-09-02T10:02:18;0.38;;;0.30;;
16839;SDS011;8536;52.150;11.572;2022-09-02T10:04:46;1.08;;;0.55;;
16839;SDS011;8536;52.150;11.572;2022-09-02T10:07:13;0.70;;;0.40;;
16839;SDS011;8536;52.150;11.572;2022-09-02T10:09:39;1.00;;;0.60;;
16839;SDS011;8536;52.150;11.572;2022-09-02T10:12:15;1.13;;;0.60;;
16839;SDS011;8536;52.150;11.572;2022-09-02T10:14:56;0.70;;;0.60;;
16839;SDS011;8536;52.150;11.572;2022-09-02T10:20:19;0.60;;;0.50;;
16839;SDS011;8536;52.150;11.572;2022-09-02T10:22:54;3.60;;;0.70;;
16839;SDS011;8536;52.150;11.572;2022-09-02T10:25:31;1.20;;;0.50;;
16839;SDS011;8536;52.150;11.572;2022-09-02T10:28:12;0.50;;;0.40;;
16839;SDS011;8536;52.150;11.572;2022-09-02T10:30:58;0.63;;;0.60;;
16839;SDS011;8536;52.150;11.572;2022-09-02T10:42:42;0.98;;;0.60;;
16839;SDS011;8536;52.150;11.572;2022-09-02T10:47:57;0.82;;;0.50;;
16839;SDS011;8536;52.150;11.572;2022-09-02T10:50:43;0.35;;;0.30;;
16839;SDS011;8536;52.150;11.572;2022-09-02T10:56:10;0.50;;;0.50;;
16839;SDS011;8536;52.150;11.572;2022-09-02T10:58:45;0.57;;;0.40;;
16839;SDS011;8536;52.150;11.572;2022-09-02T11:01:35;0.77;;;0.40;;
16839;SDS011;8536;52.150;11.572;2022-09-02T11:04:07;0.82;;;0.40;;
16839;SDS011;8536;52.150;11.572;2022-09-02T11:06:39;0.63;;;0.63;;
16839;SDS011;8536;52.150;11.572;2022-09-02T11:12:13;0.85;;;0.50;;
16839;SDS011;8536;52.150;11.572;2022-09-02T11:17:28;0.60;;;0.60;;
16839;SDS011;8536;52.150;11.572;2022-09-02T11:20:03;0.52;;;0.50;;
16839;SDS011;8536;52.150;11.572;2022-09-02T11:25:24;1.65;;;0.40;;
16839;SDS011;8536;52.150;11.572;2022-09-02T11:30:44;2.47;;;0.60;;
16839;SDS011;8536;52.150;11.572;2022-09-02T11:35:47;1.10;;;0.52;;
16839;SDS011;8536;52.150;11.572;2022-09-02T11:44:11;1.15;;;0.60;;
16839;SDS011;8536;52.150;11.572;2022-09-02T11:55:47;1.10;;;0.60;;
16839;SDS011;8536;52.150;11.572;2022-09-02T11:58:34;0.40;;;0.40;;
16839;SDS011;8536;52.150;11.572;2022-09-02T12:09:41;1.88;;;0.50;;
16839;SDS011;8536;52.150;11.572;2022-09-02T12:12:37;2.08;;;0.68;;
16839;SDS011;8536;52.150;11.572;2022-09-02T12:17:39;0.40;;;0.40;;
16839;SDS011;8536;52.150;11.572;2022-09-02T12:20:10;0.60;;;0.57;;
16839;SDS011;8536;52.150;11.572;2022-09-02T12:22:56;1.58;;;0.50;;
16839;SDS011;8536;52.150;11.572;2022-09-02T12:33:50;1.15;;;0.50;;
16839;SDS011;8536;52.150;11.572;2022-09-02T12:42:25;0.80;;;0.60;;
16839;SDS011;8536;52.150;11.572;2022-09-02T12:44:53;0.80;;;0.50;;
16839;SDS011;8536;52.150;11.572;2022-09-02T12:50:31;0.77;;;0.40;;
16839;SDS011;8536;52.150;11.572;2022-09-02T12:53:23;0.85;;;0.50;;
16839;SDS011;8536;52.150;11.572;2022-09-02T12:56:00;0.40;;;0.40;;
16839;SDS011;8536;52.150;11.572;2022-09-02T12:58:31;0.65;;;0.30;;
16839;SDS011;8536;52.150;11.572;2022-09-02T13:09:48;3.50;;;0.52;;
16839;SDS011;8536;52.150;11.572;2022-09-02T13:12:56;0.50;;;0.43;;
16839;SDS011;8536;52.150;11.572;2022-09-02T13:15:42;0.77;;;0.45;;
16839;SDS011;8536;52.150;11.572;2022-09-02T13:18:40;0.52;;;0.45;;
16839;SDS011;8536;52.150;11.572;2022-09-02T13:32:24;1.38;;;0.70;;
16839;SDS011;8536;52.150;11.572;2022-09-02T13:34:52;0.60;;;0.50;;
16839;SDS011;8536;52.150;11.572;2022-09-02T13:37:34;0.32;;;0.32;;
16839;SDS011;8536;52.150;11.572;2022-09-02T13:40:44;0.93;;;0.55;;
16839;SDS011;8536;52.150;11.572;2022-09-02T13:43:02;1.13;;;0.43;;
16839;SDS011;8536;52.150;11.572;2022-09-02T13:45:33;0.85;;;0.60;;
16839;SDS011;8536;52.150;11.572;2022-09-02T13:48:01;2.00;;;0.30;;
16839;SDS011;8536;52.150;11.572;2022-09-02T13:50:36;0.50;;;0.45;;
16839;SDS011;8536;52.150;11.572;2022-09-02T13:53:07;0.75;;;0.50;;
16839;SDS011;8536;52.150;11.572;2022-09-02T13:55:54;0.75;;;0.47;;
16839;SDS011;8536;52.150;11.572;2022-09-02T14:00:54;0.55;;;0.50;;
16839;SDS011;8536;52.150;11.572;2022-09-02T14:03:27;2.03;;;0.43;;
16839;SDS011;8536;52.150;11.572;2022-09-02T14:05:58;0.90;;;0.60;;
16839;SDS011;8536;52.150;11.572;2022-09-02T14:08:25;0.50;;;0.40;;
16839;SDS011;8536;52.150;11.572;2022-09-02T14:10:53;0.45;;;0.40;;
16839;SDS011;8536;52.150;11.572;2022-09-02T14:13:21;0.50;;;0.50;;
16839;SDS011;8536;52.150;11.572;2022-09-02T14:15:48;0.82;;;0.55;;
16839;SDS011;8536;52.150;11.572;2022-09-02T14:18:16;0.50;;;0.50;;
16839;SDS011;8536;52.150;11.572;2022-09-02T14:23:27;0.40;;;0.40;;
16839;SDS011;8536;52.150;11.572;2022-09-02T14:25:56;2.08;;;0.65;;
16839;SDS011;8536;52.150;11.572;2022-09-02T14:28:25;0.40;;;0.40;;
16839;SDS011;8536;52.150;11.572;2022-09-02T14:30:58;1.02;;;0.60;;
16839;SDS011;8536;52.150;11.572;2022-09-02T14:38:34;0.35;;;0.35;;
16839;SDS011;8536;52.150;11.572;2022-09-02T14:41:10;0.43;;;0.40;;
16839;SDS011;8536;52.150;11.572;2022-09-02T14:43:41;0.60;;;0.47;;
16839;SDS011;8536;52.150;11.572;2022-09-02T14:46:21;0.82;;;0.50;;
16839;SDS011;8536;52.150;11.572;2022-09-02T14:51:54;0.45;;;0.45;;
16839;SDS011;8536;52.150;11.572;2022-09-02T14:54:41;1.05;;;0.50;;
16839;SDS011;8536;52.150;11.572;2022-09-02T14:57:25;1.85;;;0.50;;
16839;SDS011;8536;52.150;11.572;2022-09-02T14:59:58;0.32;;;0.32;;
16839;SDS011;8536;52.150;11.572;2022-09-02T15:04:56;1.77;;;0.77;;
16839;SDS011;8536;52.150;11.572;2022-09-02T15:07:24;1.35;;;0.60;;
16839;SDS011;8536;52.150;11.572;2022-09-02T15:09:50;1.02;;;0.50;;
16839;SDS011;8536;52.150;11.572;2022-09-02T15:12:18;1.65;;;0.70;;
16839;SDS011;8536;52.150;11.572;2022-09-02T15:14:47;0.55;;;0.50;;
16839;SDS011;8536;52.150;11.572;2022-09-02T15:17:14;1.10;;;0.82;;
16839;SDS011;8536;52.150;11.572;2022-09-02T15:19:41;0.50;;;0.50;;
16839;SDS011;8536;52.150;11.572;2022-09-02T15:22:07;0.90;;;0.50;;
16839;SDS011;8536;52.150;11.572;2022-09-02T15:24:34;0.60;;;0.60;;
16839;SDS011;8536;52.150;11.572;2022-09-02T15:27:00;0.75;;;0.63;;
16839;SDS011;8536;52.150;11.572;2022-09-02T15:29:27;1.10;;;0.68;;
16839;SDS011;8536;52.150;11.572;2022-09-02T15:31:54;0.75;;;0.60;;
16839;SDS011;8536;52.150;11.572;2022-09-02T15:34:24;1.58;;;0.60;;
16839;SDS011;8536;52.150;11.572;2022-09-02T15:36:52;1.30;;;0.60;;
16839;SDS011;8536;52.150;11.572;2022-09-02T15:39:20;1.60;;;0.70;;
16839;SDS011;8536;52.150;11.572;2022-09-02T15:41:48;1.50;;;0.70;;
16839;SDS011;8536;52.150;11.572;2022-09-02T15:44:16;1.38;;;0.60;;
16839;SDS011;8536;52.150;11.572;2022-09-02T15:46:43;2.58;;;1.08;;
16839;SDS011;8536;52.150;11.572;2022-09-02T15:49:11;5.70;;;1.15;;
16839;SDS011;8536;52.150;11.572;2022-09-02T15:51:38;1.38;;;0.70;;
16839;SDS011;8536;52.150;11.572;2022-09-02T15:54:10;0.82;;;0.60;;
16839;SDS011;8536;52.150;11.572;2022-09-02T15:56:42;1.90;;;0.82;;
16839;SDS011;8536;52.150;11.572;2022-09-02T15:59:16;1.58;;;0.80;;
16839;SDS011;8536;52.150;11.572;2022-09-02T16:01:46;3.25;;;0.88;;
16839;SDS011;8536;52.150;11.572;2022-09-02T16:04:14;1.80;;;0.70;;
16839;SDS011;8536;52.150;11.572;2022-09-02T16:06:42;1.67;;;0.70;;
16839;SDS011;8536;52.150;11.572;2022-09-02T16:09:11;0.80;;;0.55;;
16839;SDS011;8536;52.150;11.572;2022-09-02T16:11:39;1.10;;;0.70;;
16839;SDS011;8536;52.150;11.572;2022-09-02T16:14:06;1.13;;;0.80;;
16839;SDS011;8536;52.150;11.572;2022-09-02T16:16:33;1.02;;;0.70;;
16839;SDS011;8536;52.150;11.572;2022-09-02T16:19:03;1.05;;;0.57;;
16839;SDS011;8536;52.150;11.572;2022-09-02T16:21:30;0.85;;;0.77;;
16839;SDS011;8536;52.150;11.572;2022-09-02T16:23:57;0.70;;;0.70;;
16839;SDS011;8536;52.150;11.572;2022-09-02T16:26:24;1.25;;;0.75;;
16839;SDS011;8536;52.150;11.572;2022-09-02T16:28:58;1.10;;;0.70;;
16839;SDS011;8536;52.150;11.572;2022-09-02T16:31:27;0.70;;;0.70;;
16839;SDS011;8536;52.150;11.572;2022-09-02T16:33:56;1.45;;;0.65;;
16839;SDS011;8536;52.150;11.572;2022-09-02T16:36:29;1.35;;;0.73;;
16839;SDS011;8536;52.150;11.572;2022-09-02T16:38:58;0.70;;;0.70;;
16839;SDS011;8536;52.150;11.572;2022-09-02T16:41:29;1.75;;;0.82;;
16839;SDS011;8536;52.150;11.572;2022-09-02T16:44:00;1.77;;;0.80;;
16839;SDS011;8536;52.150;11.572;2022-09-02T16:46:29;0.88;;;0.77;;
16839;SDS011;8536;52.150;11.572;2022-09-02T16:48:55;1.00;;;0.85;;
16839;SDS011;8536;52.150;11.572;2022-09-02T16:51:22;1.00;;;0.85;;
16839;SDS011;8536;52.150;11.572;2022-09-02T16:53:54;0.70;;;0.65;;
16839;SDS011;8536;52.150;11.572;2022-09-02T16:56:22;1.05;;;0.95;;
16839;SDS011;8536;52.150;11.572;2022-09-02T16:58:49;0.73;;;0.63;;
16839;SDS011;8536;52.150;11.572;2022-09-02T17:01:18;1.65;;;0.98;;
16839;SDS011;8536;52.150;11.572;2022-09-02T17:03:45;0.70;;;0.60;;
16839;SDS011;8536;52.150;11.572;2022-09-02T17:06:12;0.73;;;0.70;;
16839;SDS011;8536;52.150;11.572;2022-09-02T17:08:39;1.85;;;0.70;;
16839;SDS011;8536;52.150;11.572;2022-09-02T17:16:35;1.38;;;0.80;;